createdAt,value
2019-04-05T00:00:32.703Z,7.60
2019-04-05T00:03:04.801Z,8.00
2019-04-05T00:05:36.863Z,7.95
2019-04-05T00:08:08.471Z,11.00
2019-04-05T00:10:37.727Z,11.48
2019-04-05T00:13:07.336Z,9.43
2019-04-05T00:15:38.097Z,9.60
2019-04-05T00:18:07.541Z,9.85
2019-04-05T00:20:56.195Z,9.78
2019-04-05T00:23:37.448Z,10.25
2019-04-05T00:29:02.726Z,9.70
2019-04-05T00:31:31.953Z,9.20
2019-04-05T00:34:01.209Z,8.40
2019-04-05T00:36:32.982Z,8.15
2019-04-05T00:39:04.759Z,8.38
2019-04-05T00:41:33.983Z,8.00
2019-04-05T00:44:03.174Z,12.35
2019-04-05T00:46:32.324Z,8.68
2019-04-05T00:49:01.575Z,9.33
2019-04-05T00:51:31.188Z,8.53
2019-04-05T00:54:01.932Z,8.73
2019-04-05T00:56:33.874Z,8.28
2019-04-05T00:59:05.554Z,10.55
2019-04-05T01:01:35.325Z,9.58
2019-04-05T01:04:06.635Z,8.93
2019-04-05T01:06:35.788Z,9.78
2019-04-05T01:09:09.566Z,9.10
2019-04-05T01:11:38.811Z,14.75
2019-04-05T01:14:09.700Z,13.55
2019-04-05T01:16:38.852Z,17.20
2019-04-05T01:19:11.931Z,17.95
2019-04-05T01:21:41.258Z,19.15
2019-04-05T01:24:10.593Z,18.82
2019-04-05T01:26:39.857Z,21.25
2019-04-05T01:29:10.680Z,19.48
2019-04-05T01:31:39.867Z,21.97
2019-04-05T01:34:11.710Z,19.77
2019-04-05T01:36:41.873Z,17.67
2019-04-05T01:39:11.063Z,18.07
2019-04-05T01:41:41.893Z,18.07
2019-04-05T01:44:13.804Z,17.05
2019-04-05T01:46:42.980Z,21.37
2019-04-05T01:49:13.568Z,19.45
2019-04-05T01:51:43.944Z,18.65
2019-04-05T01:54:13.255Z,17.52
2019-04-05T01:56:42.433Z,16.32
2019-04-05T01:59:12.845Z,15.40
2019-04-05T02:01:42.025Z,14.78
2019-04-05T02:04:11.186Z,12.10
2019-04-05T02:06:43.406Z,12.18
2019-04-05T02:09:12.851Z,10.88
2019-04-05T02:11:42.029Z,10.72
2019-04-05T02:14:11.254Z,10.35
2019-04-05T02:16:42.576Z,10.30
2019-04-05T02:19:11.798Z,10.53
2019-04-05T02:21:42.664Z,10.55
2019-04-05T02:24:12.795Z,10.78
2019-04-05T02:26:42.010Z,11.63
2019-04-05T02:29:14.090Z,11.48
2019-04-05T02:31:43.347Z,10.70
2019-04-05T02:34:15.189Z,9.88
2019-04-05T02:36:46.775Z,9.30
2019-04-05T02:39:15.949Z,8.78
2019-04-05T02:41:45.191Z,7.75
2019-04-05T02:44:14.511Z,7.42
2019-04-05T02:46:46.415Z,7.90
2019-04-05T02:49:15.636Z,7.65
2019-04-05T02:51:47.209Z,6.53
2019-04-05T02:54:16.606Z,6.17
2019-04-05T02:56:50.179Z,6.00
2019-04-05T02:59:21.185Z,6.00
2019-04-05T03:01:53.266Z,5.35
2019-04-05T03:04:22.519Z,6.12
2019-04-05T03:06:51.693Z,5.62
2019-04-05T03:09:20.935Z,6.03
2019-04-05T03:11:51.932Z,6.05
2019-04-05T03:14:24.040Z,5.78
2019-04-05T03:16:53.279Z,6.47
2019-04-05T03:19:26.283Z,6.50
2019-04-05T03:21:58.550Z,9.48
2019-04-05T03:24:29.608Z,7.05
2019-04-05T03:30:58.720Z,7.10
2019-04-05T03:33:27.885Z,7.05
2019-04-05T03:35:57.186Z,6.70
2019-04-05T03:38:26.419Z,7.33
2019-04-05T03:40:55.646Z,6.95
2019-04-05T03:43:24.805Z,7.97
2019-04-05T03:45:54.047Z,8.45
2019-04-05T03:48:23.189Z,7.42
2019-04-05T03:50:52.350Z,6.90
2019-04-05T03:53:21.512Z,7.15
2019-04-05T03:55:50.811Z,6.92
2019-04-05T03:58:20.190Z,7.62
2019-04-05T04:00:49.362Z,7.87
2019-04-05T04:03:18.574Z,8.00
2019-04-05T04:05:47.733Z,7.72
2019-04-05T04:08:16.951Z,8.10
2019-04-05T04:10:46.449Z,9.13
2019-04-05T04:13:15.747Z,9.50
2019-04-05T04:15:45.024Z,8.75
2019-04-05T04:18:14.211Z,8.85
2019-04-05T04:20:46.783Z,10.00
2019-04-05T04:23:16.068Z,10.40
2019-04-05T04:25:45.379Z,10.90
2019-04-05T04:28:14.627Z,11.08
2019-04-05T04:30:43.867Z,11.08
2019-04-05T04:33:13.030Z,10.75
2019-04-05T04:35:42.208Z,11.57
2019-04-05T04:38:11.462Z,12.82
2019-04-05T04:40:40.695Z,12.00
2019-04-05T04:43:10.500Z,13.30
2019-04-05T04:45:39.694Z,12.60
2019-04-05T04:48:08.874Z,11.08
2019-04-05T04:50:38.182Z,12.95
2019-04-05T04:53:07.368Z,11.12
2019-04-05T04:55:36.511Z,11.25
2019-04-05T04:58:05.754Z,13.32
2019-04-05T05:00:34.919Z,10.80
2019-04-05T05:03:04.238Z,11.33
2019-04-05T05:05:33.463Z,10.78
2019-04-05T05:08:02.712Z,11.20
2019-04-05T05:10:31.951Z,11.63
2019-04-05T05:13:01.122Z,14.28
2019-04-05T05:15:30.350Z,12.25
2019-04-05T05:17:59.678Z,13.38
2019-04-05T05:20:28.840Z,12.40
2019-04-05T05:22:58.061Z,12.85
2019-04-05T05:25:27.284Z,13.55
2019-04-05T05:27:56.516Z,14.60
2019-04-05T05:30:27.083Z,14.70
2019-04-05T05:32:56.449Z,14.30
2019-04-05T05:35:25.691Z,15.40
2019-04-05T05:37:55.019Z,14.40
2019-04-05T05:40:34.174Z,14.68
2019-04-05T05:42:55.131Z,15.80
2019-04-05T05:45:24.313Z,15.95
2019-04-05T05:47:53.467Z,15.85
2019-04-05T05:50:22.674Z,15.95
2019-04-05T05:52:51.972Z,16.37
2019-04-05T05:55:21.143Z,15.50
2019-04-05T05:57:54.307Z,18.85
2019-04-05T06:00:22.982Z,18.15
2019-04-05T06:02:52.228Z,20.90
2019-04-05T06:05:21.480Z,20.68
2019-04-05T06:07:50.708Z,18.60
2019-04-05T06:10:19.990Z,21.68
2019-04-05T06:12:49.756Z,18.52
2019-04-05T06:15:19.391Z,20.02
2019-04-05T06:17:48.546Z,18.00
2019-04-05T06:20:17.803Z,17.55
2019-04-05T06:22:47.727Z,18.82
2019-04-05T06:25:17.045Z,18.70
2019-04-05T06:27:46.254Z,20.52
2019-04-05T06:30:15.429Z,20.05
2019-04-05T06:32:44.685Z,17.17
2019-04-05T06:35:13.949Z,18.67
2019-04-05T06:37:43.120Z,16.05
2019-04-05T06:40:12.359Z,21.42
2019-04-05T06:42:41.797Z,21.55
2019-04-05T06:45:11.070Z,17.70
2019-04-05T06:47:40.255Z,17.65
2019-04-05T06:50:09.505Z,17.48
2019-04-05T06:52:38.754Z,19.02
2019-04-05T06:55:07.977Z,15.88
2019-04-05T06:57:37.282Z,18.60
2019-04-05T07:00:07.743Z,15.72
2019-04-05T07:02:37.077Z,20.57
2019-04-05T07:05:07.497Z,15.13
2019-04-05T07:07:36.732Z,15.38
2019-04-05T07:10:05.971Z,14.83
2019-04-05T07:12:35.160Z,14.60
2019-04-05T07:15:06.581Z,13.28
2019-04-05T07:17:35.882Z,15.58
2019-04-05T07:20:15.306Z,13.93
2019-04-05T07:22:44.573Z,12.88
2019-04-05T07:25:13.807Z,13.25
2019-04-05T07:27:43.119Z,12.55
2019-04-05T07:30:12.486Z,12.55
2019-04-05T07:32:41.839Z,11.63
2019-04-05T07:35:11.156Z,11.18
2019-04-05T07:37:40.411Z,11.00
2019-04-05T07:40:09.720Z,11.40
2019-04-05T07:42:40.254Z,11.78
2019-04-05T07:45:09.767Z,13.83
2019-04-05T07:47:39.016Z,15.08
2019-04-05T07:50:08.661Z,12.82
2019-04-05T07:52:37.894Z,13.35
2019-04-05T07:55:09.911Z,16.05
2019-04-05T07:57:39.125Z,22.62
2019-04-05T08:00:10.696Z,14.73
2019-04-05T08:02:39.913Z,17.73
2019-04-05T08:05:09.181Z,15.40
2019-04-05T08:07:42.656Z,15.88
2019-04-05T08:10:12.041Z,15.65
2019-04-05T08:12:41.394Z,15.13
2019-04-05T08:15:11.895Z,14.90
2019-04-05T08:17:41.217Z,26.73
2019-04-05T08:20:10.498Z,18.98
2019-04-05T08:22:39.729Z,16.90
2019-04-05T08:25:28.446Z,16.73
2019-04-05T08:27:57.702Z,14.98
2019-04-05T08:30:26.986Z,16.82
2019-04-05T08:32:56.286Z,16.17
2019-04-05T08:35:25.557Z,14.05
2019-04-05T08:37:54.849Z,12.93
2019-04-05T08:40:24.237Z,11.75
2019-04-05T08:42:53.551Z,14.35
2019-04-05T08:45:22.846Z,13.18
2019-04-05T08:48:04.900Z,13.22
2019-04-05T08:50:34.217Z,11.80
2019-04-05T08:53:03.564Z,12.70
2019-04-05T08:55:33.945Z,11.75
2019-04-05T08:58:03.187Z,11.60
2019-04-05T09:00:32.370Z,11.75
2019-04-05T09:03:01.706Z,14.63
2019-04-05T09:05:33.450Z,14.03
2019-04-05T09:08:01.842Z,11.00
2019-04-05T09:10:31.202Z,13.08
2019-04-05T09:13:00.499Z,9.65
2019-04-05T09:15:29.806Z,8.45
2019-04-05T09:18:00.119Z,7.83
2019-04-05T09:20:29.965Z,6.80
2019-04-05T09:22:59.234Z,5.78
2019-04-05T09:25:28.470Z,4.83
2019-04-05T09:27:57.755Z,4.10
2019-04-05T09:30:29.452Z,4.83
2019-04-05T09:32:58.714Z,4.50
2019-04-05T09:35:28.011Z,7.35
2019-04-05T09:37:57.327Z,4.45
2019-04-05T09:40:26.580Z,4.78
2019-04-05T09:42:55.865Z,4.12
2019-04-05T09:45:25.102Z,3.80
2019-04-05T09:47:56.181Z,4.50
2019-04-05T09:50:25.539Z,3.55
2019-04-05T09:52:54.841Z,3.33
2019-04-05T09:55:24.088Z,5.08
2019-04-05T09:57:53.368Z,4.62
2019-04-05T10:00:24.455Z,4.55
2019-04-05T10:02:53.835Z,7.50
2019-04-05T10:05:23.014Z,5.30
2019-04-05T10:07:55.271Z,5.12
2019-04-05T10:10:23.178Z,5.03
2019-04-05T10:12:52.491Z,5.08
2019-04-05T10:15:22.134Z,6.50
2019-04-05T10:17:51.675Z,7.25
2019-04-05T10:20:20.924Z,7.83
2019-04-05T10:22:50.145Z,7.55
2019-04-05T10:25:19.364Z,8.00
2019-04-05T10:27:48.578Z,6.80
2019-04-05T10:30:19.039Z,9.50
2019-04-05T10:32:48.361Z,10.35
2019-04-05T10:35:17.652Z,11.45
2019-04-05T10:37:46.889Z,13.10
2019-04-05T10:40:16.209Z,12.33
2019-04-05T10:42:45.405Z,13.35
2019-04-05T10:45:16.311Z,13.72
2019-04-05T10:47:45.611Z,15.18
2019-04-05T10:50:15.022Z,16.15
2019-04-05T10:52:44.266Z,14.25
2019-04-05T10:55:13.569Z,14.65
2019-04-05T10:57:42.793Z,17.80
2019-04-05T11:00:14.983Z,13.83
2019-04-05T11:02:44.337Z,13.98
2019-04-05T11:05:13.551Z,16.00
2019-04-05T11:07:42.847Z,16.32
2019-04-05T11:10:13.215Z,17.45
2019-04-05T11:12:42.550Z,15.98
2019-04-05T11:15:11.769Z,15.70
2019-04-05T11:17:42.543Z,12.68
2019-04-05T11:20:21.254Z,12.73
2019-04-05T11:22:42.939Z,12.25
2019-04-05T11:25:12.158Z,10.85
2019-04-05T11:27:41.326Z,10.20
2019-04-05T11:30:10.601Z,9.40
2019-04-05T11:32:40.110Z,9.55
2019-04-05T11:35:09.621Z,8.15
2019-04-05T11:37:39.618Z,9.43
2019-04-05T11:40:09.462Z,6.40
2019-04-05T11:42:38.775Z,6.80
2019-04-05T11:45:09.708Z,6.28
2019-04-05T11:47:39.217Z,4.03
2019-04-05T11:50:10.270Z,5.12
2019-04-05T11:52:39.582Z,4.05
2019-04-05T11:55:08.942Z,4.45
2019-04-05T11:57:41.019Z,4.67
2019-04-05T12:00:14.697Z,4.08
2019-04-05T12:02:45.583Z,4.37
2019-04-05T12:05:16.452Z,4.50
2019-04-05T12:07:45.708Z,5.72
2019-04-05T12:10:18.614Z,7.97
2019-04-05T12:12:46.276Z,5.40
2019-04-05T12:15:15.641Z,5.08
2019-04-05T12:17:44.874Z,3.87
2019-04-05T12:20:14.088Z,4.85
2019-04-05T12:22:43.467Z,4.92
2019-04-05T12:25:12.769Z,3.65
2019-04-05T12:27:42.028Z,3.60
2019-04-05T12:30:14.091Z,3.70
2019-04-05T12:32:43.401Z,3.25
2019-04-05T12:35:12.626Z,4.30
2019-04-05T12:37:50.166Z,4.78
2019-04-05T12:40:14.890Z,3.95
2019-04-05T12:42:44.508Z,3.10
2019-04-05T12:45:15.261Z,3.75
2019-04-05T12:47:45.618Z,3.45
2019-04-05T12:50:15.512Z,5.10
2019-04-05T12:52:44.949Z,20.00
2019-04-05T12:55:14.367Z,12.73
2019-04-05T12:57:43.605Z,4.65
2019-04-05T13:00:15.165Z,4.42
2019-04-05T13:02:44.473Z,3.70
2019-04-05T13:05:20.400Z,3.10
2019-04-05T13:07:50.656Z,3.42
2019-04-05T13:10:25.030Z,6.70
2019-04-05T13:12:56.694Z,4.53
2019-04-05T13:15:24.394Z,3.30
2019-04-05T13:17:53.717Z,4.08
2019-04-05T13:20:23.103Z,3.33
2019-04-05T13:22:52.798Z,3.92
2019-04-05T13:25:23.126Z,3.30
2019-04-05T13:27:52.627Z,3.17
2019-04-05T13:30:21.853Z,4.60
2019-04-05T13:32:53.463Z,4.55
2019-04-05T13:35:22.052Z,5.65
2019-04-05T13:37:51.509Z,7.40
2019-04-05T13:40:20.781Z,13.38
2019-04-05T13:42:50.199Z,4.62
2019-04-05T13:45:19.572Z,7.85
2019-04-05T13:47:48.833Z,7.35
2019-04-05T13:50:19.431Z,5.05
2019-04-05T13:52:48.987Z,4.47
2019-04-05T13:55:18.280Z,4.45
2019-04-05T13:57:47.510Z,5.45
2019-04-05T14:00:18.518Z,3.75
2019-04-05T14:02:50.020Z,3.50
2019-04-05T14:05:18.775Z,2.45
2019-04-05T14:07:48.120Z,2.67
2019-04-05T14:10:17.353Z,2.80
2019-04-05T14:12:46.607Z,2.92
2019-04-05T14:15:15.857Z,3.05
2019-04-05T14:17:45.150Z,5.15
2019-04-05T14:20:18.772Z,6.80
2019-04-05T14:22:45.407Z,7.78
2019-04-05T14:25:14.692Z,5.25
2019-04-05T14:27:43.959Z,3.52
2019-04-05T14:30:13.782Z,3.37
2019-04-05T14:32:43.236Z,2.58
2019-04-05T14:35:12.535Z,4.03
2019-04-05T14:37:41.849Z,3.08
2019-04-05T14:40:13.870Z,2.62
2019-04-05T14:42:42.644Z,2.92
2019-04-05T14:45:12.991Z,3.10
2019-04-05T14:47:42.452Z,3.00
2019-04-05T14:50:11.695Z,7.62
2019-04-05T14:52:40.979Z,12.53
2019-04-05T14:55:20.591Z,11.45
2019-04-05T14:57:49.879Z,2.20
2019-04-05T15:00:19.541Z,2.70
2019-04-05T15:02:48.888Z,2.15
2019-04-05T15:05:18.244Z,2.25
2019-04-05T15:07:50.791Z,2.05
2019-04-05T15:10:18.857Z,2.30
2019-04-05T15:12:48.079Z,2.70
2019-04-05T15:15:17.270Z,3.02
2019-04-05T15:17:48.228Z,2.62
2019-04-05T15:20:17.534Z,2.27
2019-04-05T15:22:46.845Z,4.70
2019-04-05T15:25:17.508Z,14.23
2019-04-05T15:27:47.079Z,5.33
2019-04-05T15:30:19.160Z,5.92
2019-04-05T15:32:51.195Z,2.25
2019-04-05T15:35:19.657Z,2.60
2019-04-05T15:37:48.962Z,2.67
2019-04-05T15:40:18.713Z,3.40
2019-04-05T15:42:48.151Z,3.83
2019-04-05T15:45:17.475Z,3.33
2019-04-05T15:47:46.709Z,2.50
2019-04-05T15:50:15.956Z,3.02
2019-04-05T15:52:45.387Z,3.80
2019-04-05T15:55:14.645Z,2.67
2019-04-05T15:57:43.942Z,2.45
2019-04-05T16:00:14.890Z,3.00
2019-04-05T16:02:44.158Z,3.85
2019-04-05T16:05:13.456Z,3.60
2019-04-05T16:07:42.697Z,4.87
2019-04-05T16:10:11.857Z,5.37
2019-04-05T16:12:41.082Z,4.28
2019-04-05T16:15:10.264Z,3.20
2019-04-05T16:17:39.633Z,3.40
2019-04-05T16:20:09.703Z,4.60
2019-04-05T16:22:38.953Z,3.72
2019-04-05T16:25:09.774Z,3.42
2019-04-05T16:27:39.101Z,3.58
2019-04-05T16:30:09.249Z,4.05
2019-04-05T16:32:38.478Z,3.60
2019-04-05T16:35:07.740Z,9.43
2019-04-05T16:37:37.128Z,7.75
2019-04-05T16:40:07.356Z,10.72
2019-04-05T16:42:36.598Z,17.67
2019-04-05T16:45:10.045Z,7.50
2019-04-05T16:47:39.369Z,7.85
2019-04-05T16:50:08.654Z,5.17
2019-04-05T16:52:44.794Z,5.62
2019-04-05T16:55:08.877Z,14.07
2019-04-05T16:57:38.222Z,6.80
2019-04-05T17:00:09.364Z,4.53
2019-04-05T17:02:39.357Z,6.42
2019-04-05T17:05:08.561Z,5.42
2019-04-05T17:07:37.875Z,6.17
2019-04-05T17:10:07.290Z,10.38
2019-04-05T17:12:36.814Z,11.22
2019-04-05T17:15:07.688Z,7.20
2019-04-05T17:17:37.108Z,7.70
2019-04-05T17:20:06.372Z,8.43
2019-04-05T17:22:35.861Z,6.67
2019-04-05T17:31:29.574Z,11.57
2019-04-05T17:34:08.813Z,8.70
2019-04-05T17:36:38.136Z,7.65
2019-04-05T17:39:07.503Z,11.68
2019-04-05T17:41:36.955Z,8.85
2019-04-05T17:44:06.247Z,6.80
2019-04-05T17:46:35.473Z,8.85
2019-04-05T17:49:04.708Z,9.43
2019-04-05T17:51:34.127Z,8.83
2019-04-05T17:54:03.575Z,8.85
2019-04-05T17:56:32.890Z,13.35
2019-04-05T17:59:02.896Z,20.32
2019-04-05T18:01:32.634Z,12.23
2019-04-05T18:04:02.770Z,6.42
2019-04-05T18:06:34.957Z,5.87
2019-04-05T18:09:06.474Z,6.95
2019-04-05T18:11:36.193Z,6.70
2019-04-05T18:14:05.555Z,9.83
2019-04-05T18:16:34.926Z,19.60
2019-04-05T18:19:04.397Z,16.52
2019-04-05T18:21:33.693Z,14.90
2019-04-05T18:24:03.221Z,9.88
2019-04-05T18:26:32.497Z,7.95
2019-04-05T18:29:01.791Z,10.10
2019-04-05T18:31:31.130Z,7.67
2019-04-05T18:34:00.428Z,7.67
2019-04-05T18:36:30.208Z,11.53
2019-04-05T18:38:59.550Z,10.70
2019-04-05T18:41:28.853Z,7.92
2019-04-05T18:43:59.231Z,13.08
2019-04-05T18:46:29.492Z,14.05
2019-04-05T18:48:58.827Z,10.58
2019-04-05T18:51:28.107Z,6.95
2019-04-05T18:53:57.398Z,10.60
2019-04-05T18:56:27.954Z,9.70
2019-04-05T18:58:57.205Z,12.73
2019-04-05T19:01:26.780Z,9.28
2019-04-05T19:03:56.127Z,9.10
2019-04-05T19:06:25.442Z,8.95
2019-04-05T19:08:54.759Z,13.75
2019-04-05T19:11:23.972Z,12.60
2019-04-05T19:14:01.046Z,14.13
2019-04-05T19:16:24.037Z,16.60
2019-04-05T19:18:53.449Z,19.07
2019-04-05T19:21:22.761Z,19.07
2019-04-05T19:23:51.966Z,21.45
2019-04-05T19:26:22.838Z,21.07
2019-04-05T19:28:52.086Z,22.37
2019-04-05T19:48:58.395Z,20.30
2019-04-05T19:51:27.634Z,20.30
2019-04-05T19:54:01.503Z,17.45
2019-04-05T19:56:28.120Z,16.75
2019-04-05T19:58:57.575Z,16.95
2019-04-05T20:01:26.934Z,17.87
2019-04-05T20:03:56.402Z,18.10
2019-04-05T20:06:25.663Z,19.32
2019-04-05T20:08:55.000Z,23.57
2019-04-05T20:11:24.271Z,22.95
2019-04-05T20:13:53.585Z,20.77
2019-04-05T20:16:22.915Z,21.73
2019-04-05T20:19:02.563Z,21.27
2019-04-05T20:21:31.913Z,20.48
2019-04-05T20:24:09.389Z,21.50
2019-04-05T20:26:32.212Z,21.00
2019-04-05T20:29:01.435Z,20.92
2019-04-05T20:31:30.811Z,21.30
2019-04-05T20:34:00.201Z,20.88
2019-04-05T20:36:29.480Z,21.62
2019-04-05T20:38:58.768Z,21.77
2019-04-05T20:41:28.136Z,21.70
2019-04-05T20:43:57.494Z,21.65
2019-04-05T20:46:26.779Z,20.80
2019-04-05T20:48:56.089Z,23.80
2019-04-05T20:51:25.282Z,21.82
2019-04-05T20:53:54.549Z,19.02
2019-04-05T20:56:23.855Z,22.13
2019-04-05T20:58:54.064Z,27.77
2019-04-05T21:01:24.286Z,33.50
2019-04-05T21:03:53.460Z,35.85
2019-04-05T21:06:22.829Z,30.37
2019-04-05T21:08:52.134Z,25.70
2019-04-05T21:11:21.371Z,28.90
2019-04-05T21:13:51.511Z,27.62
2019-04-05T21:16:20.764Z,26.33
2019-04-05T21:18:50.154Z,29.25
2019-04-05T21:21:19.362Z,26.02
2019-04-05T21:23:48.627Z,25.57
2019-04-05T21:26:17.871Z,25.65
2019-04-05T21:28:47.054Z,24.45
2019-04-05T21:31:16.285Z,24.67
2019-04-05T21:33:45.604Z,25.62
2019-04-05T21:36:14.838Z,24.60
2019-04-05T21:38:44.160Z,25.52
2019-04-05T21:41:13.398Z,24.32
2019-04-05T21:43:42.583Z,26.85
2019-04-05T21:46:11.875Z,25.20
2019-04-05T21:48:41.161Z,24.18
2019-04-05T21:51:10.446Z,26.02
2019-04-05T21:53:39.745Z,24.90
2019-04-05T21:56:08.989Z,25.15
2019-04-05T21:58:38.256Z,28.25
2019-04-05T22:01:08.755Z,28.02
2019-04-05T22:03:39.711Z,27.13
2019-04-05T22:06:08.901Z,25.57
2019-04-05T22:08:39.324Z,26.45
2019-04-05T22:11:08.506Z,25.10
2019-04-05T22:13:38.734Z,25.50
2019-04-05T22:16:07.911Z,26.15
2019-04-05T22:18:37.283Z,27.62
2019-04-05T22:21:06.475Z,26.57
2019-04-05T22:23:35.657Z,26.50
2019-04-05T22:26:04.814Z,28.10
2019-04-05T22:28:34.115Z,28.52
2019-04-05T22:31:03.293Z,29.42
2019-04-05T22:33:32.533Z,28.85
2019-04-05T22:36:01.774Z,31.20
2019-04-05T22:38:31.040Z,33.10
2019-04-05T22:41:01.430Z,32.90
2019-04-05T22:43:30.663Z,34.20
2019-04-05T22:45:59.905Z,34.25
2019-04-05T22:48:29.070Z,34.13
2019-04-05T22:50:58.337Z,33.25
2019-04-05T22:53:28.012Z,35.48
2019-04-05T22:55:57.201Z,36.05
2019-04-05T22:58:26.497Z,34.75
2019-04-05T23:00:55.753Z,33.53
2019-04-05T23:03:24.908Z,32.67
2019-04-05T23:05:54.295Z,34.05
2019-04-05T23:08:23.497Z,32.60
2019-04-05T23:10:52.665Z,36.35
2019-04-05T23:13:34.199Z,40.80
2019-04-05T23:16:03.429Z,33.53
2019-04-05T23:18:32.610Z,32.58
2019-04-05T23:21:02.007Z,33.48
2019-04-05T23:23:31.254Z,33.85
2019-04-05T23:26:00.432Z,38.63
2019-04-05T23:28:29.598Z,35.05
2019-04-05T23:30:58.744Z,36.95
2019-04-05T23:33:27.922Z,37.80
2019-04-05T23:35:57.143Z,33.90
2019-04-05T23:38:26.326Z,34.27
2019-04-05T23:40:55.475Z,35.58
2019-04-05T23:43:24.801Z,37.33
2019-04-05T23:45:54.013Z,37.13
2019-04-05T23:48:23.190Z,36.90
2019-04-05T23:50:52.412Z,33.60
2019-04-05T23:53:21.698Z,35.30
2019-04-05T23:55:51.006Z,34.90
2019-04-05T23:58:20.294Z,34.73
